Flag for USA

Past Weather in 36°57'16"N, 86°25'26"W, USA — Yesterday and Last 2 Weeks

Currently: 34 °F. Clear. (Weather station: Glasgow Municipal Airport, USA). See more current weather

Past Weather in 36°57'16"N, 86°25'26"W — Graph

°F

36°57'16"N, 86°25'26"W Temperature Yesterday

Maximum temperature yesterday: 65 °F (at 2:55 pm)
Minimum temperature yesterday: 26 °F (at 6:15 am)
Average temperature yesterday: 45 °F

High & Low Weather Summary for the Past Weeks

 TemperatureHumidityPressure
High69 °F (Feb 24, 12:35 pm)100% (Feb 22, 5:35 am)30.55 "Hg (Feb 22, 5:35 am)
Low24 °F (Mar 7, 3:35 am)25% (Mar 8, 3:55 pm)29.83 "Hg (Feb 28, 2:35 pm)
Average45 °F70%30.16 "Hg
* Reported Feb 22 1:15 am — Mar 9 1:15 am, 36°57'16"N, 86°25'26"W. Weather by CustomWeather, © 2021

Note: Actual official high and low records may vary slightly from our data, if they occured in-between our weather recording intervals... More about our weather records

36°57'16"N, 86°25'26"W Weather History for the Previous 24 Hours

Scroll right to see more
 ConditionsComfort  
Time TempWeatherWind HumidityBarometerVisibility
1:15 am
Tue, Mar 9
33 °FClear.No wind91%30.43 "Hg10 mi
12:55 am35 °FClear.No wind85%30.43 "Hg10 mi
12:35 am36 °FClear.No wind85%30.43 "Hg10 mi
12:15 am36 °FClear.No wind83%30.42 "Hg10 mi
11:55 pm
Mon, Mar 8
36 °FClear.No wind84%30.42 "Hg10 mi
11:35 pm37 °FClear.No wind82%30.43 "Hg10 mi
11:15 pm38 °FClear.No wind78%30.43 "Hg10 mi
10:55 pm38 °FClear.No wind79%30.43 "Hg10 mi
10:35 pm38 °FClear.No wind78%30.43 "Hg10 mi
10:15 pm38 °FClear.No wind82%30.43 "Hg10 mi
9:55 pm38 °FClear.No wind84%30.43 "Hg10 mi
9:35 pm40 °FClear.No wind76%30.44 "Hg10 mi
9:15 pm41 °FClear.No wind70%30.44 "Hg10 mi
8:55 pm42 °FClear.No wind67%30.44 "Hg10 mi
8:35 pm43 °FClear.No wind64%30.43 "Hg10 mi
8:15 pm44 °FClear.No wind62%30.43 "Hg10 mi
7:55 pm45 °FClear.No wind58%30.43 "Hg10 mi
7:35 pm47 °FClear.No wind55%30.43 "Hg10 mi
7:15 pm48 °FClear.No wind52%30.43 "Hg10 mi
6:55 pm51 °FClear.No wind46%30.43 "Hg10 mi
6:35 pm52 °FClear.No wind44%30.43 "Hg10 mi
6:15 pm55 °FClear.No wind39%30.42 "Hg10 mi
5:55 pm57 °FClear.No wind37%30.42 "Hg10 mi
5:35 pm62 °FClear.No wind30%30.42 "Hg10 mi
5:15 pm62 °FClear.No wind31%30.42 "Hg10 mi
4:55 pm63 °FClear.No wind28%30.42 "Hg10 mi
4:35 pm63 °FSunny.No wind29%30.42 "Hg10 mi
4:15 pm63 °FSunny.No wind27%30.43 "Hg10 mi
3:55 pm65 °FSunny.No wind25%30.43 "Hg10 mi
3:35 pm65 °FSunny.No wind26%30.43 "Hg10 mi
3:15 pm65 °FSunny.No wind26%30.43 "Hg10 mi
2:55 pm65 °FSunny.No wind26%30.43 "Hg10 mi
2:35 pm65 °FSunny.No wind26%30.44 "Hg10 mi
2:15 pm64 °FSunny.10 mph26%30.44 "Hg10 mi
1:35 pm65 °FSunny.3 mph28%30.45 "Hg10 mi
1:15 pm64 °FSunny.10 mph29%30.46 "Hg10 mi
12:55 pm64 °FSunny.10 mph29%30.47 "Hg10 mi
12:35 pm63 °FSunny.9 mph30%30.49 "Hg10 mi
12:15 pm62 °FSunny.6 mph31%30.50 "Hg10 mi
11:55 am62 °FSunny.No wind32%30.51 "Hg10 mi
11:35 am60 °FSunny.7 mph33%30.51 "Hg10 mi
11:15 am60 °FSunny.9 mph35%30.52 "Hg10 mi
10:55 am59 °FSunny.8 mph35%30.53 "Hg10 mi
10:35 am58 °FSunny.10 mph36%30.54 "Hg10 mi
10:15 am57 °FSunny.8 mph38%30.54 "Hg10 mi
9:55 am55 °FSunny.No wind40%30.54 "Hg10 mi
9:35 am54 °FSunny.No wind44%30.54 "Hg10 mi
9:15 am51 °FSunny.No wind46%30.54 "Hg10 mi
8:55 am49 °FSunny.No wind50%30.55 "Hg10 mi
8:35 am46 °FSunny.No wind53%30.54 "Hg10 mi
8:15 am42 °FSunny.No wind65%30.54 "Hg10 mi
7:35 am36 °FSunny.No wind66%30.53 "Hg10 mi
7:15 am30 °FSunny.No wind92%30.53 "Hg10 mi
6:55 am28 °FSunny.No wind94%30.52 "Hg10 mi
6:35 am27 °FSunny.No wind94%30.52 "Hg10 mi
6:15 am26 °FSunny.No wind94%30.52 "Hg10 mi
5:55 am27 °FSunny.No wind95%30.51 "Hg10 mi
5:35 am27 °FSunny.No wind96%30.51 "Hg10 mi
5:15 am28 °FSunny.No wind96%30.51 "Hg10 mi
4:55 am27 °FClear.No wind97%30.50 "Hg10 mi
4:35 am28 °FClear.No wind96%30.50 "Hg10 mi
4:15 am28 °FClear.No wind97%30.49 "Hg10 mi
3:55 am27 °FClear.No wind96%30.49 "Hg10 mi
3:35 am28 °FClear.No wind96%30.48 "Hg10 mi
3:15 am28 °FClear.No wind93%30.48 "Hg10 mi
2:55 am29 °FClear.No wind90%30.48 "Hg10 mi
2:35 am28 °FClear.No wind93%30.47 "Hg10 mi
2:15 am28 °FClear.No wind93%30.47 "Hg10 mi
Weather by CustomWeather, © 2021

See weather overview